sensor_id;sensor_type;location;lat;lon;timestamp;pressure;altitude;pressure_sealevel;temperature;humidity
56582;BME280;42463;52.214;21.238;2022-10-17T00:01:39;101263.93;;;15.29;69.28
56582;BME280;42463;52.214;21.238;2022-10-17T00:04:04;101270.75;;;15.26;69.46
56582;BME280;42463;52.214;21.238;2022-10-17T00:06:28;101266.08;;;15.21;69.51
56582;BME280;42463;52.214;21.238;2022-10-17T00:08:52;101271.46;;;15.18;69.66
56582;BME280;42463;52.214;21.238;2022-10-17T00:11:19;101279.00;;;15.17;69.79
56582;BME280;42463;52.214;21.238;2022-10-17T00:13:44;101281.17;;;15.16;69.70
56582;BME280;42463;52.214;21.238;2022-10-17T00:16:10;101286.27;;;15.14;70.00
56582;BME280;42463;52.214;21.238;2022-10-17T00:18:34;101286.91;;;15.14;70.03
56582;BME280;42463;52.214;21.238;2022-10-17T00:20:58;101293.02;;;15.13;70.38
56582;BME280;42463;52.214;21.238;2022-10-17T00:23:23;101290.55;;;15.12;70.45
56582;BME280;42463;52.214;21.238;2022-10-17T00:25:58;101291.59;;;15.11;70.38
56582;BME280;42463;52.214;21.238;2022-10-17T00:28:23;101285.09;;;15.10;70.77
56582;BME280;42463;52.214;21.238;2022-10-17T00:30:55;101289.83;;;15.09;70.54
56582;BME280;42463;52.214;21.238;2022-10-17T00:33:20;101286.20;;;15.08;70.55
56582;BME280;42463;52.214;21.238;2022-10-17T00:35:44;101280.09;;;15.08;70.47
56582;BME280;42463;52.214;21.238;2022-10-17T00:38:10;101272.55;;;15.07;70.36
56582;BME280;42463;52.214;21.238;2022-10-17T00:40:34;101273.33;;;15.09;70.62
56582;BME280;42463;52.214;21.238;2022-10-17T00:42:59;101278.45;;;15.09;70.69
56582;BME280;42463;52.214;21.238;2022-10-17T00:45:26;101277.47;;;15.08;70.33
56582;BME280;42463;52.214;21.238;2022-10-17T00:47:57;101272.05;;;15.08;70.53
56582;BME280;42463;52.214;21.238;2022-10-17T00:50:24;101277.30;;;15.08;70.66
56582;BME280;42463;52.214;21.238;2022-10-17T00:52:49;101284.63;;;15.09;70.46
56582;BME280;42463;52.214;21.238;2022-10-17T00:55:15;101280.91;;;15.08;70.32
56582;BME280;42463;52.214;21.238;2022-10-17T00:57:41;101280.14;;;15.07;70.67
56582;BME280;42463;52.214;21.238;2022-10-17T01:03:49;101296.11;;;15.01;70.13
56582;BME280;42463;52.214;21.238;2022-10-17T01:06:14;101291.50;;;14.98;70.30
56582;BME280;42463;52.214;21.238;2022-10-17T01:08:39;101288.98;;;14.97;69.93
56582;BME280;42463;52.214;21.238;2022-10-17T01:11:10;101290.27;;;14.95;69.94
56582;BME280;42463;52.214;21.238;2022-10-17T01:13:40;101289.06;;;14.94;69.95
56582;BME280;42463;52.214;21.238;2022-10-17T01:16:10;101288.17;;;14.91;70.05
56582;BME280;42463;52.214;21.238;2022-10-17T01:18:50;101299.31;;;14.90;69.99
56582;BME280;42463;52.214;21.238;2022-10-17T01:21:31;101300.11;;;14.88;69.72
56582;BME280;42463;52.214;21.238;2022-10-17T01:27:23;101300.47;;;14.84;70.23
56582;BME280;42463;52.214;21.238;2022-10-17T01:32:50;101301.66;;;14.84;69.86
56582;BME280;42463;52.214;21.238;2022-10-17T01:35:21;101305.33;;;14.84;69.59
56582;BME280;42463;52.214;21.238;2022-10-17T01:37:54;101304.77;;;14.83;69.61
56582;BME280;42463;52.214;21.238;2022-10-17T01:40:25;101303.50;;;14.82;69.57
56582;BME280;42463;52.214;21.238;2022-10-17T01:42:58;101294.85;;;14.79;69.66
56582;BME280;42463;52.214;21.238;2022-10-17T01:45:28;101294.88;;;14.76;69.86
56582;BME280;42463;52.214;21.238;2022-10-17T01:47:57;101291.41;;;14.73;69.88
56582;BME280;42463;52.214;21.238;2022-10-17T01:50:27;101287.21;;;14.67;69.94
56582;BME280;42463;52.214;21.238;2022-10-17T01:52:54;101288.44;;;14.63;70.43
56582;BME280;42463;52.214;21.238;2022-10-17T01:55:22;101285.19;;;14.60;70.67
56582;BME280;42463;52.214;21.238;2022-10-17T01:57:50;101283.42;;;14.58;70.98
56582;BME280;42463;52.214;21.238;2022-10-17T02:00:20;101282.13;;;14.56;71.27
56582;BME280;42463;52.214;21.238;2022-10-17T02:02:50;101289.54;;;14.55;71.26
56582;BME280;42463;52.214;21.238;2022-10-17T02:05:16;101296.42;;;14.56;71.55
56582;BME280;42463;52.214;21.238;2022-10-17T02:07:42;101293.94;;;14.57;71.47
56582;BME280;42463;52.214;21.238;2022-10-17T02:10:14;101286.59;;;14.58;71.68
56582;BME280;42463;52.214;21.238;2022-10-17T02:12:48;101288.19;;;14.59;71.50
56582;BME280;42463;52.214;21.238;2022-10-17T02:15:35;101287.70;;;14.61;71.43
56582;BME280;42463;52.214;21.238;2022-10-17T02:18:15;101295.56;;;14.60;71.41
56582;BME280;42463;52.214;21.238;2022-10-17T02:20:50;101300.73;;;14.58;71.29
56582;BME280;42463;52.214;21.238;2022-10-17T02:23:19;101298.64;;;14.57;71.25
56582;BME280;42463;52.214;21.238;2022-10-17T02:25:52;101297.34;;;14.56;71.55
56582;BME280;42463;52.214;21.238;2022-10-17T02:28:21;101299.34;;;14.57;71.34
56582;BME280;42463;52.214;21.238;2022-10-17T02:30:51;101301.71;;;14.56;71.25
56582;BME280;42463;52.214;21.238;2022-10-17T02:33:19;101301.11;;;14.55;71.22
56582;BME280;42463;52.214;21.238;2022-10-17T02:35:48;101296.85;;;14.54;71.04
56582;BME280;42463;52.214;21.238;2022-10-17T02:38:16;101300.29;;;14.53;70.93
56582;BME280;42463;52.214;21.238;2022-10-17T02:40:42;101304.23;;;14.50;70.62
56582;BME280;42463;52.214;21.238;2022-10-17T02:43:07;101309.89;;;14.48;70.61
56582;BME280;42463;52.214;21.238;2022-10-17T02:45:33;101318.39;;;14.46;70.80
56582;BME280;42463;52.214;21.238;2022-10-17T02:48:04;101325.49;;;14.46;70.63
56582;BME280;42463;52.214;21.238;2022-10-17T02:50:40;101332.30;;;14.44;70.39
56582;BME280;42463;52.214;21.238;2022-10-17T02:53:09;101337.48;;;14.41;70.63
56582;BME280;42463;52.214;21.238;2022-10-17T02:55:40;101340.35;;;14.39;70.77
56582;BME280;42463;52.214;21.238;2022-10-17T02:58:09;101340.12;;;14.38;70.97
56582;BME280;42463;52.214;21.238;2022-10-17T03:00:36;101340.77;;;14.36;70.88
56582;BME280;42463;52.214;21.238;2022-10-17T03:03:09;101339.33;;;14.35;71.35
56582;BME280;42463;52.214;21.238;2022-10-17T03:05:41;101337.14;;;14.35;71.22
56582;BME280;42463;52.214;21.238;2022-10-17T03:08:06;101340.19;;;14.34;71.00
56582;BME280;42463;52.214;21.238;2022-10-17T03:10:30;101344.45;;;14.34;71.21
56582;BME280;42463;52.214;21.238;2022-10-17T03:12:54;101348.64;;;14.33;71.38
56582;BME280;42463;52.214;21.238;2022-10-17T03:15:20;101355.79;;;14.32;71.62
56582;BME280;42463;52.214;21.238;2022-10-17T03:17:44;101361.92;;;14.34;71.55
56582;BME280;42463;52.214;21.238;2022-10-17T03:20:10;101365.58;;;14.34;71.47
56582;BME280;42463;52.214;21.238;2022-10-17T03:22:34;101370.22;;;14.34;71.55
56582;BME280;42463;52.214;21.238;2022-10-17T03:24:59;101372.55;;;14.33;71.76
56582;BME280;42463;52.214;21.238;2022-10-17T03:27:24;101367.10;;;14.33;72.05
56582;BME280;42463;52.214;21.238;2022-10-17T03:29:49;101360.73;;;14.34;72.10
56582;BME280;42463;52.214;21.238;2022-10-17T03:32:14;101365.05;;;14.35;72.18
56582;BME280;42463;52.214;21.238;2022-10-17T03:34:38;101354.77;;;14.35;72.43
56582;BME280;42463;52.214;21.238;2022-10-17T03:37:03;101356.14;;;14.35;72.31
56582;BME280;42463;52.214;21.238;2022-10-17T03:39:27;101365.16;;;14.35;72.24
56582;BME280;42463;52.214;21.238;2022-10-17T03:41:52;101373.73;;;14.35;72.03
56582;BME280;42463;52.214;21.238;2022-10-17T03:44:16;101385.29;;;14.35;72.14
56582;BME280;42463;52.214;21.238;2022-10-17T03:46:41;101385.27;;;14.33;72.03
56582;BME280;42463;52.214;21.238;2022-10-17T03:49:07;101386.84;;;14.32;72.03
56582;BME280;42463;52.214;21.238;2022-10-17T03:51:32;101385.80;;;14.31;72.26
56582;BME280;42463;52.214;21.238;2022-10-17T03:54:00;101384.61;;;14.32;72.22
56582;BME280;42463;52.214;21.238;2022-10-17T03:56:25;101375.87;;;14.32;72.15
56582;BME280;42463;52.214;21.238;2022-10-17T03:58:54;101379.48;;;14.33;72.24
56582;BME280;42463;52.214;21.238;2022-10-17T04:01:19;101382.92;;;14.34;72.08
56582;BME280;42463;52.214;21.238;2022-10-17T04:03:47;101386.81;;;14.33;72.06
56582;BME280;42463;52.214;21.238;2022-10-17T04:06:13;101384.30;;;14.34;72.10
56582;BME280;42463;52.214;21.238;2022-10-17T04:08:38;101383.39;;;14.36;72.09
56582;BME280;42463;52.214;21.238;2022-10-17T04:11:09;101387.19;;;14.39;72.11
56582;BME280;42463;52.214;21.238;2022-10-17T04:13:34;101381.72;;;14.38;71.86
56582;BME280;42463;52.214;21.238;2022-10-17T04:16:00;101380.92;;;14.35;71.80
56582;BME280;42463;52.214;21.238;2022-10-17T04:18:25;101381.33;;;14.32;71.74
56582;BME280;42463;52.214;21.238;2022-10-17T04:20:50;101384.12;;;14.33;72.22
56582;BME280;42463;52.214;21.238;2022-10-17T04:23:15;101381.61;;;14.33;72.12
56582;BME280;42463;52.214;21.238;2022-10-17T04:25:40;101386.99;;;14.31;72.02
56582;BME280;42463;52.214;21.238;2022-10-17T04:28:05;101389.91;;;14.29;72.28
56582;BME280;42463;52.214;21.238;2022-10-17T04:30:30;101394.75;;;14.27;72.35
56582;BME280;42463;52.214;21.238;2022-10-17T04:32:55;101398.02;;;14.26;72.53
56582;BME280;42463;52.214;21.238;2022-10-17T04:35:19;101401.30;;;14.27;72.70
56582;BME280;42463;52.214;21.238;2022-10-17T04:37:47;101398.05;;;14.29;72.80
56582;BME280;42463;52.214;21.238;2022-10-17T04:40:14;101398.17;;;14.29;72.70
56582;BME280;42463;52.214;21.238;2022-10-17T04:42:39;101398.66;;;14.30;72.64
56582;BME280;42463;52.214;21.238;2022-10-17T04:45:05;101399.80;;;14.29;73.08
56582;BME280;42463;52.214;21.238;2022-10-17T04:47:31;101404.16;;;14.28;72.94
56582;BME280;42463;52.214;21.238;2022-10-17T04:49:56;101406.27;;;14.28;73.14
56582;BME280;42463;52.214;21.238;2022-10-17T04:52:20;101406.08;;;14.28;73.23
56582;BME280;42463;52.214;21.238;2022-10-17T04:54:46;101401.60;;;14.29;73.33
56582;BME280;42463;52.214;21.238;2022-10-17T04:57:10;101400.08;;;14.30;73.44
56582;BME280;42463;52.214;21.238;2022-10-17T04:59:36;101400.13;;;14.29;73.41
56582;BME280;42463;52.214;21.238;2022-10-17T05:02:24;101405.36;;;14.29;73.48
56582;BME280;42463;52.214;21.238;2022-10-17T05:04:49;101409.05;;;14.30;73.49
56582;BME280;42463;52.214;21.238;2022-10-17T05:07:14;101417.08;;;14.31;73.51
56582;BME280;42463;52.214;21.238;2022-10-17T05:09:55;101416.39;;;14.32;73.40
56582;BME280;42463;52.214;21.238;2022-10-17T05:12:20;101412.14;;;14.34;73.56
56582;BME280;42463;52.214;21.238;2022-10-17T05:14:45;101407.58;;;14.35;73.45
56582;BME280;42463;52.214;21.238;2022-10-17T05:17:10;101416.92;;;14.36;73.19
56582;BME280;42463;52.214;21.238;2022-10-17T05:19:35;101424.58;;;14.37;73.41
56582;BME280;42463;52.214;21.238;2022-10-17T05:22:00;101428.20;;;14.39;73.39
56582;BME280;42463;52.214;21.238;2022-10-17T05:24:25;101432.30;;;14.40;72.99
56582;BME280;42463;52.214;21.238;2022-10-17T05:26:51;101443.06;;;14.41;73.22
56582;BME280;42463;52.214;21.238;2022-10-17T05:29:15;101448.64;;;14.42;73.27
56582;BME280;42463;52.214;21.238;2022-10-17T05:31:43;101457.10;;;14.43;73.36
56582;BME280;42463;52.214;21.238;2022-10-17T05:34:08;101462.77;;;14.46;73.43
56582;BME280;42463;52.214;21.238;2022-10-17T05:36:33;101467.61;;;14.49;73.35
56582;BME280;42463;52.214;21.238;2022-10-17T05:38:59;101463.30;;;14.50;73.25
56582;BME280;42463;52.214;21.238;2022-10-17T05:41:24;101459.45;;;14.52;73.07
56582;BME280;42463;52.214;21.238;2022-10-17T05:43:49;101453.40;;;14.53;73.19
56582;BME280;42463;52.214;21.238;2022-10-17T05:46:17;101458.48;;;14.56;73.43
56582;BME280;42463;52.214;21.238;2022-10-17T05:48:42;101468.46;;;14.58;73.28
56582;BME280;42463;52.214;21.238;2022-10-17T05:51:08;101471.23;;;14.58;73.13
56582;BME280;42463;52.214;21.238;2022-10-17T05:53:35;101475.52;;;14.58;73.28
56582;BME280;42463;52.214;21.238;2022-10-17T05:56:02;101481.27;;;14.61;73.21
56582;BME280;42463;52.214;21.238;2022-10-17T05:58:27;101488.67;;;14.63;73.17
56582;BME280;42463;52.214;21.238;2022-10-17T06:00:58;101492.52;;;14.65;73.04
56582;BME280;42463;52.214;21.238;2022-10-17T06:03:24;101495.77;;;14.68;73.32
56582;BME280;42463;52.214;21.238;2022-10-17T06:05:49;101503.13;;;14.71;73.46
56582;BME280;42463;52.214;21.238;2022-10-17T06:08:15;101507.31;;;14.74;73.26
56582;BME280;42463;52.214;21.238;2022-10-17T06:10:40;101508.54;;;14.75;73.20
56582;BME280;42463;52.214;21.238;2022-10-17T06:13:04;101507.02;;;14.77;73.17
56582;BME280;42463;52.214;21.238;2022-10-17T06:15:29;101506.93;;;14.79;73.00
56582;BME280;42463;52.214;21.238;2022-10-17T06:17:58;101507.02;;;14.81;73.02
56582;BME280;42463;52.214;21.238;2022-10-17T06:20:22;101506.39;;;14.85;73.32
56582;BME280;42463;52.214;21.238;2022-10-17T06:22:47;101505.88;;;14.87;72.99
56582;BME280;42463;52.214;21.238;2022-10-17T06:25:22;101509.52;;;14.89;73.03
56582;BME280;42463;52.214;21.238;2022-10-17T06:27:47;101508.44;;;14.91;72.94
56582;BME280;42463;52.214;21.238;2022-10-17T06:30:12;101508.05;;;14.91;72.85
56582;BME280;42463;52.214;21.238;2022-10-17T06:32:36;101511.02;;;14.92;72.83
56582;BME280;42463;52.214;21.238;2022-10-17T06:35:02;101518.11;;;14.95;72.88
56582;BME280;42463;52.214;21.238;2022-10-17T06:37:31;101516.30;;;14.99;72.91
56582;BME280;42463;52.214;21.238;2022-10-17T06:39:56;101513.81;;;15.09;73.09
56582;BME280;42463;52.214;21.238;2022-10-17T06:42:21;101521.30;;;15.18;72.86
56582;BME280;42463;52.214;21.238;2022-10-17T06:45:03;101523.35;;;15.27;72.56
56582;BME280;42463;52.214;21.238;2022-10-17T06:47:34;101527.05;;;15.37;72.61
56582;BME280;42463;52.214;21.238;2022-10-17T06:50:05;101528.30;;;15.48;72.40
56582;BME280;42463;52.214;21.238;2022-10-17T06:52:39;101532.43;;;15.59;72.23
56582;BME280;42463;52.214;21.238;2022-10-17T06:55:24;101538.86;;;15.72;71.91
56582;BME280;42463;52.214;21.238;2022-10-17T06:58:07;101537.63;;;15.83;71.83
56582;BME280;42463;52.214;21.238;2022-10-17T07:01:00;101534.81;;;15.94;71.49
56582;BME280;42463;52.214;21.238;2022-10-17T07:03:25;101533.58;;;16.05;71.31
56582;BME280;42463;52.214;21.238;2022-10-17T07:05:53;101535.40;;;16.16;71.15
56582;BME280;42463;52.214;21.238;2022-10-17T07:08:18;101539.30;;;16.26;70.99
56582;BME280;42463;52.214;21.238;2022-10-17T07:10:42;101537.11;;;16.36;70.70
56582;BME280;42463;52.214;21.238;2022-10-17T07:13:07;101537.48;;;16.45;70.34
56582;BME280;42463;52.214;21.238;2022-10-17T07:15:33;101534.55;;;16.54;70.07
56582;BME280;42463;52.214;21.238;2022-10-17T07:17:57;101538.29;;;16.63;69.90
56582;BME280;42463;52.214;21.238;2022-10-17T07:20:22;101535.41;;;16.71;69.56
56582;BME280;42463;52.214;21.238;2022-10-17T07:22:47;101534.30;;;16.79;69.41
56582;BME280;42463;52.214;21.238;2022-10-17T07:25:11;101540.68;;;16.87;69.01
56582;BME280;42463;52.214;21.238;2022-10-17T07:27:50;101544.09;;;16.92;68.87
56582;BME280;42463;52.214;21.238;2022-10-17T07:30:14;101546.67;;;16.94;68.52
56582;BME280;42463;52.214;21.238;2022-10-17T07:32:53;101545.70;;;16.95;68.28
56582;BME280;42463;52.214;21.238;2022-10-17T07:35:17;101547.34;;;16.98;68.15
56582;BME280;42463;52.214;21.238;2022-10-17T07:37:42;101549.44;;;16.98;68.12
56582;BME280;42463;52.214;21.238;2022-10-17T07:40:08;101550.81;;;17.02;68.11
56582;BME280;42463;52.214;21.238;2022-10-17T07:42:34;101548.19;;;17.07;67.99
56582;BME280;42463;52.214;21.238;2022-10-17T07:45:00;101542.45;;;17.11;67.87
56582;BME280;42463;52.214;21.238;2022-10-17T07:47:26;101547.33;;;17.14;67.77
56582;BME280;42463;52.214;21.238;2022-10-17T07:49:53;101550.09;;;17.17;67.24
56582;BME280;42463;52.214;21.238;2022-10-17T07:52:17;101555.46;;;17.19;67.24
56582;BME280;42463;52.214;21.238;2022-10-17T07:54:41;101563.80;;;17.21;67.45
56582;BME280;42463;52.214;21.238;2022-10-17T07:57:06;101565.79;;;17.26;67.51
56582;BME280;42463;52.214;21.238;2022-10-17T07:59:33;101568.05;;;17.31;67.58
56582;BME280;42463;52.214;21.238;2022-10-17T08:01:58;101569.10;;;17.33;67.18
56582;BME280;42463;52.214;21.238;2022-10-17T08:04:22;101567.02;;;17.35;66.99
56582;BME280;42463;52.214;21.238;2022-10-17T08:06:46;101574.10;;;17.40;67.10
56582;BME280;42463;52.214;21.238;2022-10-17T08:09:11;101575.20;;;17.45;66.92
56582;BME280;42463;52.214;21.238;2022-10-17T08:11:36;101583.73;;;17.51;66.73
56582;BME280;42463;52.214;21.238;2022-10-17T08:14:01;101583.02;;;17.57;66.74
56582;BME280;42463;52.214;21.238;2022-10-17T08:16:25;101586.48;;;17.62;66.45
56582;BME280;42463;52.214;21.238;2022-10-17T08:18:49;101585.13;;;17.66;66.60
56582;BME280;42463;52.214;21.238;2022-10-17T08:21:13;101587.65;;;17.72;66.53
56582;BME280;42463;52.214;21.238;2022-10-17T08:23:38;101590.77;;;17.73;66.41
56582;BME280;42463;52.214;21.238;2022-10-17T08:26:04;101587.75;;;17.74;66.15
56582;BME280;42463;52.214;21.238;2022-10-17T08:28:34;101587.60;;;17.76;65.78
56582;BME280;42463;52.214;21.238;2022-10-17T08:31:04;101584.20;;;17.77;65.46
56582;BME280;42463;52.214;21.238;2022-10-17T08:33:29;101582.66;;;17.84;65.87
56582;BME280;42463;52.214;21.238;2022-10-17T08:35:54;101575.02;;;17.91;65.87
56582;BME280;42463;52.214;21.238;2022-10-17T08:38:19;101575.90;;;17.95;65.48
56582;BME280;42463;52.214;21.238;2022-10-17T08:40:43;101572.94;;;17.99;65.51
56582;BME280;42463;52.214;21.238;2022-10-17T08:43:32;101571.94;;;18.02;65.29
56582;BME280;42463;52.214;21.238;2022-10-17T08:46:03;101575.39;;;18.06;65.45
56582;BME280;42463;52.214;21.238;2022-10-17T08:48:30;101573.04;;;18.10;65.47
56582;BME280;42463;52.214;21.238;2022-10-17T08:50:58;101573.91;;;18.12;65.24
56582;BME280;42463;52.214;21.238;2022-10-17T08:53:26;101571.98;;;18.14;64.81
56582;BME280;42463;52.214;21.238;2022-10-17T08:55:53;101567.25;;;18.16;64.60
56582;BME280;42463;52.214;21.238;2022-10-17T08:58:19;101564.23;;;18.20;64.54
56582;BME280;42463;52.214;21.238;2022-10-17T09:00:49;101567.47;;;18.25;64.65
56582;BME280;42463;52.214;21.238;2022-10-17T09:03:27;101568.48;;;18.32;64.72
56582;BME280;42463;52.214;21.238;2022-10-17T09:05:59;101570.89;;;18.37;64.74
56582;BME280;42463;52.214;21.238;2022-10-17T09:08:36;101571.16;;;18.39;64.32
56582;BME280;42463;52.214;21.238;2022-10-17T09:11:12;101566.88;;;18.40;64.32
56582;BME280;42463;52.214;21.238;2022-10-17T09:13:50;101568.91;;;18.42;64.23
56582;BME280;42463;52.214;21.238;2022-10-17T09:16:30;101572.09;;;18.44;64.33
56582;BME280;42463;52.214;21.238;2022-10-17T09:19:03;101569.11;;;18.46;64.06
56582;BME280;42463;52.214;21.238;2022-10-17T09:21:45;101563.23;;;18.48;64.05
56582;BME280;42463;52.214;21.238;2022-10-17T09:24:14;101558.65;;;18.54;63.86
56582;BME280;42463;52.214;21.238;2022-10-17T09:26:42;101555.35;;;18.56;63.87
56582;BME280;42463;52.214;21.238;2022-10-17T09:29:16;101556.49;;;18.60;64.02
56582;BME280;42463;52.214;21.238;2022-10-17T09:31:44;101554.58;;;18.65;63.96
56582;BME280;42463;52.214;21.238;2022-10-17T09:34:10;101557.91;;;18.70;63.93
56582;BME280;42463;52.214;21.238;2022-10-17T09:36:38;101555.89;;;18.76;64.08
56582;BME280;42463;52.214;21.238;2022-10-17T09:39:06;101563.50;;;18.81;63.47
56582;BME280;42463;52.214;21.238;2022-10-17T09:41:38;101563.05;;;18.86;63.68
56582;BME280;42463;52.214;21.238;2022-10-17T09:44:14;101564.98;;;18.93;63.32
56582;BME280;42463;52.214;21.238;2022-10-17T09:46:39;101567.04;;;19.00;63.07
56582;BME280;42463;52.214;21.238;2022-10-17T09:49:08;101563.81;;;19.07;62.88
56582;BME280;42463;52.214;21.238;2022-10-17T09:51:37;101563.23;;;19.16;63.12
56582;BME280;42463;52.214;21.238;2022-10-17T09:54:06;101557.84;;;19.22;62.79
56582;BME280;42463;52.214;21.238;2022-10-17T09:56:59;101550.92;;;19.28;62.38
56582;BME280;42463;52.214;21.238;2022-10-17T09:59:32;101555.63;;;19.34;61.71
56582;BME280;42463;52.214;21.238;2022-10-17T10:02:08;101551.25;;;19.37;61.67
56582;BME280;42463;52.214;21.238;2022-10-17T10:04:33;101551.36;;;19.45;62.16
56582;BME280;42463;52.214;21.238;2022-10-17T10:07:04;101546.05;;;19.54;62.44
56582;BME280;42463;52.214;21.238;2022-10-17T10:09:31;101547.39;;;19.65;62.38
56582;BME280;42463;52.214;21.238;2022-10-17T10:11:58;101545.61;;;19.73;62.00
56582;BME280;42463;52.214;21.238;2022-10-17T10:14:27;101541.87;;;19.84;61.81
56582;BME280;42463;52.214;21.238;2022-10-17T10:16:52;101544.23;;;19.95;60.77
56582;BME280;42463;52.214;21.238;2022-10-17T10:19:26;101541.23;;;20.04;60.71
56582;BME280;42463;52.214;21.238;2022-10-17T10:21:57;101538.96;;;20.16;60.14
56582;BME280;42463;52.214;21.238;2022-10-17T10:24:21;101534.87;;;20.28;59.37
56582;BME280;42463;52.214;21.238;2022-10-17T10:26:48;101535.48;;;20.37;58.75
56582;BME280;42463;52.214;21.238;2022-10-17T10:29:29;101527.22;;;20.45;58.57
56582;BME280;42463;52.214;21.238;2022-10-17T10:31:54;101526.38;;;20.51;58.33
56582;BME280;42463;52.214;21.238;2022-10-17T10:34:22;101523.81;;;20.62;58.38
56582;BME280;42463;52.214;21.238;2022-10-17T10:36:58;101529.80;;;20.76;58.72
56582;BME280;42463;52.214;21.238;2022-10-17T10:39:44;101531.30;;;20.90;57.98
56582;BME280;42463;52.214;21.238;2022-10-17T10:42:19;101530.89;;;21.04;57.56
56582;BME280;42463;52.214;21.238;2022-10-17T10:44:44;101528.28;;;21.21;57.41
56582;BME280;42463;52.214;21.238;2022-10-17T10:47:21;101531.55;;;21.39;56.81
56582;BME280;42463;52.214;21.238;2022-10-17T10:49:46;101526.11;;;21.58;55.91
56582;BME280;42463;52.214;21.238;2022-10-17T10:52:12;101525.14;;;21.74;55.16
56582;BME280;42463;52.214;21.238;2022-10-17T10:54:45;101521.67;;;21.87;54.52
56582;BME280;42463;52.214;21.238;2022-10-17T10:57:16;101524.17;;;21.99;54.68
56582;BME280;42463;52.214;21.238;2022-10-17T10:59:51;101518.66;;;22.12;54.16
56582;BME280;42463;52.214;21.238;2022-10-17T11:02:23;101516.40;;;22.26;54.14
56582;BME280;42463;52.214;21.238;2022-10-17T11:04:54;101525.80;;;22.40;53.69
56582;BME280;42463;52.214;21.238;2022-10-17T11:07:25;101523.64;;;22.49;53.56
56582;BME280;42463;52.214;21.238;2022-10-17T11:09:57;101526.20;;;22.58;52.83
56582;BME280;42463;52.214;21.238;2022-10-17T11:12:26;101522.69;;;22.65;52.54
56582;BME280;42463;52.214;21.238;2022-10-17T11:14:56;101526.80;;;22.70;51.53
56582;BME280;42463;52.214;21.238;2022-10-17T11:17:29;101525.71;;;22.74;52.27
56582;BME280;42463;52.214;21.238;2022-10-17T11:20:02;101527.52;;;22.84;52.28
56582;BME280;42463;52.214;21.238;2022-10-17T11:22:29;101521.45;;;22.89;51.66
56582;BME280;42463;52.214;21.238;2022-10-17T11:24:57;101525.69;;;22.95;51.44
56582;BME280;42463;52.214;21.238;2022-10-17T11:27:22;101519.52;;;22.99;50.73
56582;BME280;42463;52.214;21.238;2022-10-17T11:29:47;101520.74;;;23.06;51.24
56582;BME280;42463;52.214;21.238;2022-10-17T11:32:14;101523.06;;;23.13;51.33
56582;BME280;42463;52.214;21.238;2022-10-17T11:34:43;101522.38;;;23.17;51.65
56582;BME280;42463;52.214;21.238;2022-10-17T11:37:14;101526.05;;;23.28;51.45
56582;BME280;42463;52.214;21.238;2022-10-17T11:39:42;101524.48;;;23.40;51.20
56582;BME280;42463;52.214;21.238;2022-10-17T11:42:13;101522.60;;;23.49;50.29
56582;BME280;42463;52.214;21.238;2022-10-17T11:44:40;101520.29;;;23.54;50.91
56582;BME280;42463;52.214;21.238;2022-10-17T11:47:10;101524.45;;;23.56;51.11
56582;BME280;42463;52.214;21.238;2022-10-17T11:49:39;101519.21;;;23.62;51.10
56582;BME280;42463;52.214;21.238;2022-10-17T11:52:13;101519.25;;;23.69;50.17
56582;BME280;42463;52.214;21.238;2022-10-17T11:54:44;101522.19;;;23.73;49.60
56582;BME280;42463;52.214;21.238;2022-10-17T11:57:29;101521.79;;;23.82;49.35
56582;BME280;42463;52.214;21.238;2022-10-17T12:00:06;101522.89;;;23.94;49.21
56582;BME280;42463;52.214;21.238;2022-10-17T12:02:38;101528.04;;;24.03;48.90
56582;BME280;42463;52.214;21.238;2022-10-17T12:05:16;101526.27;;;24.12;48.69
56582;BME280;42463;52.214;21.238;2022-10-17T12:07:47;101529.61;;;24.18;48.78
56582;BME280;42463;52.214;21.238;2022-10-17T12:10:23;101530.95;;;24.28;48.30
56582;BME280;42463;52.214;21.238;2022-10-17T12:12:52;101531.45;;;24.35;48.77
56582;BME280;42463;52.214;21.238;2022-10-17T12:15:30;101523.89;;;24.40;48.50
56582;BME280;42463;52.214;21.238;2022-10-17T12:17:56;101521.88;;;24.42;47.36
56582;BME280;42463;52.214;21.238;2022-10-17T12:20:29;101520.39;;;24.44;47.64
56582;BME280;42463;52.214;21.238;2022-10-17T12:22:55;101527.03;;;24.50;46.59
56582;BME280;42463;52.214;21.238;2022-10-17T12:25:23;101519.26;;;24.49;46.56
56582;BME280;42463;52.214;21.238;2022-10-17T12:28:10;101521.75;;;24.51;46.33
56582;BME280;42463;52.214;21.238;2022-10-17T12:30:36;101523.02;;;24.49;45.98
56582;BME280;42463;52.214;21.238;2022-10-17T12:33:20;101514.35;;;24.52;45.91
56582;BME280;42463;52.214;21.238;2022-10-17T12:35:45;101514.11;;;24.60;46.75
56582;BME280;42463;52.214;21.238;2022-10-17T12:38:20;101508.09;;;24.73;46.82
56582;BME280;42463;52.214;21.238;2022-10-17T12:41:05;101507.20;;;24.90;46.26
56582;BME280;42463;52.214;21.238;2022-10-17T12:43:55;101505.65;;;25.04;45.70
56582;BME280;42463;52.214;21.238;2022-10-17T12:49:39;101493.83;;;25.23;45.11
56582;BME280;42463;52.214;21.238;2022-10-17T12:52:16;101502.65;;;25.17;45.06
56582;BME280;42463;52.214;21.238;2022-10-17T12:54:44;101496.88;;;25.06;44.16
56582;BME280;42463;52.214;21.238;2022-10-17T12:57:18;101496.23;;;24.95;44.58
56582;BME280;42463;52.214;21.238;2022-10-17T12:59:45;101492.18;;;24.82;44.90
56582;BME280;42463;52.214;21.238;2022-10-17T13:02:14;101488.34;;;24.70;44.97